Terminal Aerodrome Forecast
Issued by NWS

Home | Current Version | Previous Version | Text Only | Print | Product List | Glossary On
Versions: 1 2 3 4 5 6 7 8 9 10 11 12 13 14 15 16 17
000
FTUS41 KILN 181700
TAFLUK
TAF
KLUK 181725Z 1818/1918 28006KT P6SM BKN060
     FM190000 34005KT P6SM SCT060
     FM190800 03006KT P6SM SKC
     FM191400 06010KT P6SM SKC=

USA.gov is the U.S. government's official web portal to all federal, state and local government web resources and services.